CheckWX is a tool to help pilots better visualize weather data.  It is not intended as a substitute for an official pre-flight weather briefing.

13:06:25 UTC

KLEE TAF
Leesburg International Airport
Leesburg, Florida, USA
KLEE 181132Z 1812/1912 20005KT P6SM FEW030 SCT070 BKN250 FM181300 20006KT P6SM SCT030 SCT070 BKN150 FM181700 22007KT P6SM VCTS SCT040CB SCT060 BKN150 FM190000 25003KT P6SM FEW035 SCT100 BKN250

Aug-18@
12:00 UTC

Aug-18 @ 12:00 UTC

Aug-18@
13:00 UTC

Aug-18 @ 13:00 UTC

KLEE 181132Z 1812/1912 20005KT P6SM FEW030 SCT070 BKN250

Expired

Wind
  • 200° at 5 KTS
Cloud Levels
  • Few at 3,000' AGL
  • Scattered at 7,000' AGL
  • Broken at 25,000' AGL

Aug-18@
13:00 UTC

Aug-18 @ 13:00 UTC

Aug-18@
17:00 UTC

Aug-18 @ 17:00 UTC

FM181300 20006KT P6SM SCT030 SCT070 BKN150

From

From Standard forecast or significant change

Wind
  • 200° at 6 KTS
Cloud Levels
  • Scattered at 3,000' AGL
  • Scattered at 7,000' AGL
  • Broken at 15,000' AGL

Aug-18@
17:00 UTC

Aug-18 @ 17:00 UTC

Aug-19@
00:00 UTC

Aug-19 @ 00:00 UTC

FM181700 22007KT P6SM VCTS SCT040CB SCT060 BKN150

From

From Standard forecast or significant change

Wind
  • 220° at 7 KTS
Conditions
Area Thunderstorm
Cloud Levels
  • Scattered at 4,000' AGL
  • Scattered at 6,000' AGL
  • Broken at 15,000' AGL

Aug-19@
00:00 UTC

Aug-19 @ 00:00 UTC

Aug-19@
12:00 UTC

Aug-19 @ 12:00 UTC

FM190000 25003KT P6SM FEW035 SCT100 BKN250

From

From Standard forecast or significant change

Wind
  • 250° at 3 KTS
Cloud Levels
  • Few at 3,500' AGL
  • Scattered at 10,000' AGL
  • Broken at 25,000' AGL